Terminal Aerodrome Forecast
Issued by NWS

Home | Current Version | Previous Version | Text Only | Print | Product List | Glossary On
Versions: 1 2 3 4 5 6 7 8 9 10 11 12 13 14 15 16 17
000
FTUS43 KGRR 011700
TAFBTL
TAF
KBTL 011740Z 0118/0218 25010KT P6SM VCTS BKN050CB
     FM020100 24003KT P6SM SKC
     FM020900 VRB03KT 2SM BR SKC
     FM021400 04003KT P6SM SKC=

USA.gov is the U.S. government's official web portal to all federal, state and local government web resources and services.